Time;durP1;ratioP1;P1;durP2;ratioP2;P2;SDS_P1;SDS_P2;PMS_P1;PMS_P2;Temp;Humidity;BMP_temperature;BMP_pressure;BME280_temperature;BME280_humidity;BME280_pressure;Samples;Min_cycle;Max_cycle;Signal;HPM_P1;HPM_P2
2022/03/03 00:01:50;;;;;;;;;;;;;;;2.66;62.65;100528.21;1802941;78;20131;-87
2022/03/03 00:04:16;;;;;;;;;;;;;;;2.64;62.83;100526.15;1798757;77;20217;-82
2022/03/03 00:06:41;;;;;;;;;;;;;;;2.68;62.65;100526.34;1809925;77;21027;-84
2022/03/03 00:09:07;;;;;;;;;;;;;;;2.57;63.07;100524.40;1789077;78;20411;-86
2022/03/03 00:11:33;;;;;;;;;;;;;;;2.65;62.97;100518.70;1803043;78;20137;-85
2022/03/03 00:13:58;;;;;;;;;;;;;;;2.66;62.57;100516.48;1807816;78;20165;-84
2022/03/03 00:16:25;;;;;;;;;;;;;;;2.51;62.96;100517.78;1789863;78;20169;-82
2022/03/03 00:18:50;;;;;;;;;;;;;;;2.61;62.92;100515.91;1776125;78;21102;-87
2022/03/03 00:21:16;;;;;;;;;;;;;;;2.55;63.09;100524.97;1805645;77;20121;-84
2022/03/03 00:23:42;;;;;;;;;;;;;;;2.56;62.88;100530.53;1776769;78;20344;-83
2022/03/03 00:26:07;;;;;;;;;;;;;;;2.59;62.99;100520.39;1805433;78;20429;-83
2022/03/03 00:28:33;;;;;;;;;;;;;;;2.53;63.02;100514.25;1805052;78;20181;-86
2022/03/03 00:30:58;;;;;;;;;;;;;;;2.45;63.28;100511.65;1805219;78;22549;-86
2022/03/03 00:33:24;;;;;;;;;;;;;;;2.42;63.36;100505.80;1808192;78;20116;-83
2022/03/03 00:35:50;;;;;;;;;;;;;;;2.51;63.18;100489.11;1806144;78;20187;-84
2022/03/03 00:38:16;;;;;;;;;;;;;;;2.57;62.98;100491.81;1794925;78;20722;-86
2022/03/03 00:40:41;;;;;;;;;;;;;;;2.61;62.65;100482.88;1753806;81;20173;-83
2022/03/03 00:43:08;;;;;;;;;;;;;;;2.54;63.01;100473.75;1753010;80;21098;-85
2022/03/03 00:45:34;;;;;;;;;;;;;;;2.46;63.23;100470.33;1793287;78;20488;-85
2022/03/03 00:48:00;;;;;;;;;;;;;;;2.59;62.90;100473.47;1811070;78;20142;-83
2022/03/03 00:50:25;;;;;;;;;;;;;;;2.32;63.56;100469.05;1811931;77;20150;-84
2022/03/03 00:52:51;;;;;;;;;;;;;;;2.19;64.07;100468.13;1801725;78;20257;-84
2022/03/03 00:55:16;;;;;;;;;;;;;;;2.38;63.77;100453.03;1801238;78;21151;-84
2022/03/03 00:57:42;;;;;;;;;;;;;;;2.36;63.72;100453.58;1816168;78;20281;-84
2022/03/03 01:00:09;;;;;;;;;;;;;;;2.38;63.89;100453.03;1805579;78;20112;-83
2022/03/03 01:02:35;;;;;;;;;;;;;;;2.35;63.97;100455.83;1804798;78;20202;-82
2022/03/03 01:05:00;;;;;;;;;;;;;;;2.33;64.10;100452.46;1789694;78;20224;-85
2022/03/03 01:07:26;;;;;;;;;;;;;;;2.30;64.16;100449.60;1785099;78;21138;-82
2022/03/03 01:09:51;;;;;;;;;;;;;;;2.28;64.27;100441.50;1751572;80;20133;-85
2022/03/03 01:12:17;;;;;;;;;;;;;;;2.33;64.23;100439.44;1777310;78;20403;-84
2022/03/03 01:14:43;;;;;;;;;;;;;;;2.24;64.48;100435.66;1807031;78;20111;-84
2022/03/03 01:17:08;;;;;;;;;;;;;;;2.25;64.52;100431.27;1793256;78;20181;-84
2022/03/03 01:19:34;;;;;;;;;;;;;;;2.28;64.51;100437.59;1761530;79;21191;-85
2022/03/03 01:21:59;;;;;;;;;;;;;;;2.24;64.61;100433.52;1778931;79;20133;-85
2022/03/03 01:24:25;;;;;;;;;;;;;;;2.20;64.72;100435.94;1739029;80;20446;-88
2022/03/03 01:26:51;;;;;;;;;;;;;;;2.12;65.08;100436.41;1770156;79;20140;-86
2022/03/03 01:29:16;;;;;;;;;;;;;;;2.11;65.35;100435.58;1770099;80;20125;-84
2022/03/03 01:31:42;;;;;;;;;;;;;;;2.13;65.46;100438.09;1754306;79;21157;-86
2022/03/03 01:34:08;;;;;;;;;;;;;;;2.14;65.37;100439.30;1742926;80;20187;-85
2022/03/03 01:36:34;;;;;;;;;;;;;;;2.00;65.72;100437.16;1763323;79;20207;-86
2022/03/03 01:38:59;;;;;;;;;;;;;;;2.11;65.52;100429.08;1748540;80;20214;-84
2022/03/03 01:41:25;;;;;;;;;;;;;;;2.12;65.64;100432.03;1777222;80;20273;-85
2022/03/03 01:43:51;;;;;;;;;;;;;;;2.17;65.56;100433.52;1771043;80;21042;-85
2022/03/03 01:46:17;;;;;;;;;;;;;;;2.04;65.98;100440.79;1769616;79;20266;-85
2022/03/03 01:48:43;;;;;;;;;;;;;;;1.84;66.35;100436.80;1766403;80;20652;-84
2022/03/03 01:51:09;;;;;;;;;;;;;;;1.75;66.88;100443.38;1766732;80;20151;-86
2022/03/03 01:53:35;;;;;;;;;;;;;;;1.96;66.12;100444.34;1727247;80;20214;-86
2022/03/03 01:56:01;;;;;;;;;;;;;;;1.87;66.33;100442.29;1769028;80;21093;-83
2022/03/03 01:58:26;;;;;;;;;;;;;;;1.94;66.14;100443.57;1763436;80;20361;-86
2022/03/03 02:00:52;;;;;;;;;;;;;;;1.87;66.33;100437.91;1771972;79;20147;-85
2022/03/03 02:03:17;;;;;;;;;;;;;;;2.11;65.76;100439.48;1767123;80;20137;-85
2022/03/03 02:05:43;;;;;;;;;;;;;;;2.18;65.67;100435.20;1768852;80;20138;-86
2022/03/03 02:08:08;;;;;;;;;;;;;;;2.23;65.47;100433.14;1768155;80;21102;-83
2022/03/03 02:10:34;;;;;;;;;;;;;;;2.26;65.32;100430.34;1766486;80;20186;-84
2022/03/03 02:12:59;;;;;;;;;;;;;;;2.13;65.60;100420.69;1762463;80;20116;-85
2022/03/03 02:15:25;;;;;;;;;;;;;;;1.93;65.93;100419.30;1766146;79;21176;-86
2022/03/03 02:17:51;;;;;;;;;;;;;;;1.89;66.07;100415.68;1784440;78;20092;-85
2022/03/03 02:20:23;;;;;;;;;;;;;;;1.87;66.33;100426.19;1815902;77;22407;-83
2022/03/03 02:22:50;;;;;;;;;;;;;;;1.87;66.13;100414.95;1809940;78;20446;-81
2022/03/03 02:25:16;;;;;;;;;;;;;;;1.86;66.40;100417.99;1813108;78;20149;-84
2022/03/03 02:27:42;;;;;;;;;;;;;;;1.87;66.20;100418.38;1809457;78;20183;-85
2022/03/03 02:30:08;;;;;;;;;;;;;;;1.73;66.67;100417.91;1812850;78;20180;-86
2022/03/03 02:32:34;;;;;;;;;;;;;;;1.68;66.74;100416.06;1811643;78;21058;-84
2022/03/03 02:34:59;;;;;;;;;;;;;;;1.58;67.08;100413.63;1816973;77;20131;-83
2022/03/03 02:37:31;;;;;;;;;;;;;;;1.54;67.27;100417.33;1817344;78;20147;-86
2022/03/03 02:39:56;;;;;;;;;;;;;;;1.43;67.80;100416.22;1805981;77;20105;-87
2022/03/03 02:42:22;;;;;;;;;;;;;;;1.40;68.11;100407.30;1811608;77;20193;-87
2022/03/03 02:44:48;;;;;;;;;;;;;;;1.35;68.31;100402.84;1814476;77;21045;-87
2022/03/03 02:47:14;;;;;;;;;;;;;;;1.25;68.95;100413.41;1811814;78;20187;-83
2022/03/03 02:49:39;;;;;;;;;;;;;;;1.37;68.67;100395.77;1809618;77;20469;-82
2022/03/03 02:52:05;;;;;;;;;;;;;;;1.35;68.69;100395.03;1808691;78;20147;-86
2022/03/03 02:54:31;;;;;;;;;;;;;;;1.25;69.13;100392.59;1816321;77;20176;-85
2022/03/03 02:59:41;;;;;;;;;;;;;;;1.15;69.67;100403.14;1812848;78;20120;-87
2022/03/03 03:02:06;;;;;;;;;;;;;;;1.05;70.00;100397.18;1815460;78;20163;-81
2022/03/03 03:04:32;;;;;;;;;;;;;;;1.19;69.59;100396.84;1805828;77;20116;-82
2022/03/03 03:06:57;;;;;;;;;;;;;;;0.99;70.13;100391.50;1807298;78;20131;-85
2022/03/03 03:09:23;;;;;;;;;;;;;;;1.18;69.62;100383.46;1811898;78;21146;-84
2022/03/03 03:11:48;;;;;;;;;;;;;;;1.15;69.72;100388.84;1811178;78;20516;-84
2022/03/03 03:14:14;;;;;;;;;;;;;;;1.07;69.89;100391.45;1812182;78;20145;-82
2022/03/03 03:16:40;;;;;;;;;;;;;;;0.96;70.51;100384.70;1814644;78;20139;-82
2022/03/03 03:19:05;;;;;;;;;;;;;;;1.00;70.28;100384.91;1806146;78;20131;-85
2022/03/03 03:21:31;;;;;;;;;;;;;;;1.10;69.92;100384.38;1801545;79;20953;-84
2022/03/03 03:23:56;;;;;;;;;;;;;;;0.92;70.54;100387.13;1797699;79;20439;-86
2022/03/03 03:26:22;;;;;;;;;;;;;;;1.03;70.29;100384.73;1805798;79;20125;-85
2022/03/03 03:28:47;;;;;;;;;;;;;;;1.16;70.09;100374.92;1796697;79;20100;-86
2022/03/03 03:31:13;;;;;;;;;;;;;;;1.29;69.47;100374.58;1800113;79;20151;-87
2022/03/03 03:33:41;;;;;;;;;;;;;;;1.28;69.58;100372.90;1801316;77;21107;-84
2022/03/03 03:36:06;;;;;;;;;;;;;;;1.35;69.19;100373.36;1782486;79;20494;-86
2022/03/03 03:38:32;;;;;;;;;;;;;;;1.26;69.36;100372.16;1803105;78;20292;-85
2022/03/03 03:40:57;;;;;;;;;;;;;;;1.22;69.54;100371.48;1797007;78;20121;-83
2022/03/03 03:43:23;;;;;;;;;;;;;;;1.13;69.89;100368.12;1798348;79;20243;-85
2022/03/03 03:45:49;;;;;;;;;;;;;;;1.11;70.24;100369.98;1802137;79;21085;-84
2022/03/03 03:48:15;;;;;;;;;;;;;;;1.14;70.01;100363.78;1801413;78;20171;-84
2022/03/03 03:50:40;;;;;;;;;;;;;;;1.21;70.24;100358.57;1798583;78;20216;-88
2022/03/03 03:53:06;;;;;;;;;;;;;;;1.15;70.07;100364.13;1805118;78;20726;-86
2022/03/03 03:55:31;;;;;;;;;;;;;;;1.12;70.42;100360.41;1802913;78;20183;-86
2022/03/03 03:57:57;;;;;;;;;;;;;;;1.14;70.28;100358.58;1801392;79;21078;-85
2022/03/03 04:00:23;;;;;;;;;;;;;;;1.18;70.31;100356.15;1799500;79;20144;-85
2022/03/03 04:02:48;;;;;;;;;;;;;;;1.16;70.18;100352.81;1807788;77;20898;-86
2022/03/03 04:05:14;;;;;;;;;;;;;;;1.11;70.46;100340.08;1803688;77;20108;-84
2022/03/03 04:07:40;;;;;;;;;;;;;;;1.17;70.38;100342.79;1801943;79;20162;-87
2022/03/03 04:10:06;;;;;;;;;;;;;;;1.19;70.44;100342.23;1805794;77;21100;-85
2022/03/03 04:12:31;;;;;;;;;;;;;;;1.10;70.52;100337.57;1803283;77;20191;-87
2022/03/03 04:14:57;;;;;;;;;;;;;;;0.90;70.93;100343.46;1793469;78;20149;-86
2022/03/03 04:17:23;;;;;;;;;;;;;;;0.95;71.16;100336.25;1801250;78;20153;-86
2022/03/03 04:19:48;;;;;;;;;;;;;;;0.89;71.35;100336.13;1815962;77;20213;-82
2022/03/03 04:22:14;;;;;;;;;;;;;;;0.86;71.41;100334.19;1812297;77;22503;-83
2022/03/03 04:24:39;;;;;;;;;;;;;;;0.81;71.53;100332.30;1804917;78;20156;-84
2022/03/03 04:27:05;;;;;;;;;;;;;;;0.87;71.42;100321.54;1803580;78;20163;-88
2022/03/03 04:29:31;;;;;;;;;;;;;;;0.85;71.58;100320.33;1812928;78;20165;-87
2022/03/03 04:31:58;;;;;;;;;;;;;;;1.03;71.00;100314.52;1806615;79;20289;-86
2022/03/03 04:34:25;;;;;;;;;;;;;;;0.89;71.10;100325.73;1809810;78;21182;-86
2022/03/03 04:36:51;;;;;;;;;;;;;;;0.96;70.98;100323.60;1808855;78;20174;-87
2022/03/03 04:39:16;;;;;;;;;;;;;;;0.83;71.27;100324.80;1809912;78;20214;-83
2022/03/03 04:41:42;;;;;;;;;;;;;;;0.85;71.18;100332.03;1808777;78;20137;-83
2022/03/03 04:44:08;;;;;;;;;;;;;;;0.85;71.13;100333.80;1809916;77;20120;-84
2022/03/03 04:46:33;;;;;;;;;;;;;;;0.77;71.43;100332.13;1808243;78;21793;-85
2022/03/03 04:48:59;;;;;;;;;;;;;;;0.80;71.48;100325.45;1805470;78;20118;-85
2022/03/03 04:51:30;;;;;;;;;;;;;;;0.76;71.65;100327.84;1818854;78;20101;-86
2022/03/03 04:53:56;;;;;;;;;;;;;;;0.68;71.84;100331.73;1814114;78;20163;-87
2022/03/03 04:56:22;;;;;;;;;;;;;;;0.67;71.78;100324.85;1804599;77;20172;-83
2022/03/03 04:58:49;;;;;;;;;;;;;;;0.76;71.70;100323.94;1802490;77;21120;-85
2022/03/03 05:01:16;;;;;;;;;;;;;;;0.61;72.03;100322.61;1798557;78;20164;-87
2022/03/03 05:03:41;;;;;;;;;;;;;;;0.57;72.09;100322.39;1800183;78;20125;-85
2022/03/03 05:06:07;;;;;;;;;;;;;;;0.52;72.40;100318.77;1808537;78;20719;-88
2022/03/03 05:08:33;;;;;;;;;;;;;;;0.61;72.14;100312.69;1811747;78;20242;-87
2022/03/03 05:10:58;;;;;;;;;;;;;;;0.50;72.33;100310.23;1816670;77;21172;-88
2022/03/03 05:13:24;;;;;;;;;;;;;;;0.50;72.24;100314.13;1805126;78;20342;-84
2022/03/03 05:15:49;;;;;;;;;;;;;;;0.51;72.19;100312.35;1814027;78;20127;-85
2022/03/03 05:18:15;;;;;;;;;;;;;;;0.50;72.17;100316.72;1806686;78;20669;-84
2022/03/03 05:20:41;;;;;;;;;;;;;;;0.43;72.56;100315.86;1808272;78;20164;-84
2022/03/03 05:23:06;;;;;;;;;;;;;;;0.46;72.28;100311.78;1810706;78;21062;-85
2022/03/03 05:25:32;;;;;;;;;;;;;;;0.39;72.45;100314.34;1818548;77;20337;-83
2022/03/03 05:28:00;;;;;;;;;;;;;;;0.37;72.58;100311.01;1805320;77;20473;-85
2022/03/03 05:30:25;;;;;;;;;;;;;;;0.46;72.29;100313.09;1800291;78;20743;-84
2022/03/03 05:32:52;;;;;;;;;;;;;;;0.51;72.31;100308.45;1812164;78;20116;-84
2022/03/03 05:35:18;;;;;;;;;;;;;;;0.30;72.64;100308.75;1802099;78;21127;-84
2022/03/03 05:37:45;;;;;;;;;;;;;;;0.42;72.49;100305.94;1806341;78;20756;-84
2022/03/03 05:40:12;;;;;;;;;;;;;;;0.47;72.38;100306.98;1804045;77;20642;-83
2022/03/03 05:42:38;;;;;;;;;;;;;;;0.56;72.10;100293.46;1813922;78;20143;-86
2022/03/03 05:45:05;;;;;;;;;;;;;;;0.60;72.07;100293.64;1803271;78;20233;-85
2022/03/03 05:47:30;;;;;;;;;;;;;;;0.54;72.20;100304.38;1808961;77;21235;-84
2022/03/03 05:49:56;;;;;;;;;;;;;;;0.60;72.16;100292.34;1806252;78;20115;-84
2022/03/03 05:52:22;;;;;;;;;;;;;;;0.78;71.89;100296.08;1817085;77;20184;-82
2022/03/03 05:54:48;;;;;;;;;;;;;;;0.79;71.44;100302.97;1807430;77;20705;-84
2022/03/03 05:57:19;;;;;;;;;;;;;;;0.84;71.46;100302.22;1806114;78;20124;-86
2022/03/03 05:59:45;;;;;;;;;;;;;;;0.73;71.34;100303.32;1808734;78;21080;-81
2022/03/03 06:02:10;;;;;;;;;;;;;;;0.74;71.37;100295.44;1802161;77;20398;-84
2022/03/03 06:04:38;;;;;;;;;;;;;;;0.90;71.11;100297.96;1788287;77;20163;-85
2022/03/03 06:07:07;;;;;;;;;;;;;;;0.84;71.06;100297.02;1815868;77;20237;-86
2022/03/03 06:09:34;;;;;;;;;;;;;;;0.79;71.12;100293.87;1809291;77;20156;-84
2022/03/03 06:12:19;;;;;;;;;;;;;;;0.70;71.26;100291.36;1811647;78;21148;-84
2022/03/03 06:14:53;;;;;;;;;;;;;;;0.60;71.76;100296.23;1804891;77;20129;-86
2022/03/03 06:17:23;;;;;;;;;;;;;;;0.49;72.36;100294.73;1782705;77;20475;-83
2022/03/03 06:19:51;;;;;;;;;;;;;;;0.54;72.31;100282.30;1816196;78;20135;-87
2022/03/03 06:22:20;;;;;;;;;;;;;;;0.65;71.57;100283.83;1814078;78;20108;-84
2022/03/03 06:24:47;;;;;;;;;;;;;;;0.59;71.95;100291.98;1807258;77;20787;-85
2022/03/03 06:27:12;;;;;;;;;;;;;;;0.62;71.97;100294.41;1814943;78;20151;-80
2022/03/03 06:29:39;;;;;;;;;;;;;;;0.56;72.06;100294.76;1814372;77;20482;-85
2022/03/03 06:32:06;;;;;;;;;;;;;;;0.68;71.77;100295.35;1810969;78;20836;-82
2022/03/03 06:34:31;;;;;;;;;;;;;;;0.78;71.77;100296.94;1808603;77;20166;-84
2022/03/03 06:36:57;;;;;;;;;;;;;;;0.67;71.64;100296.27;1808153;78;21009;-84
2022/03/03 06:39:23;;;;;;;;;;;;;;;0.81;71.55;100295.91;1807975;77;20161;-84
2022/03/03 06:41:48;;;;;;;;;;;;;;;0.57;72.31;100296.41;1801127;78;20766;-84
2022/03/03 06:44:14;;;;;;;;;;;;;;;0.77;71.95;100293.95;1812228;78;20125;-84
2022/03/03 06:46:40;;;;;;;;;;;;;;;0.65;72.38;100299.42;1808070;78;20355;-83
2022/03/03 06:49:05;;;;;;;;;;;;;;;0.82;71.97;100302.31;1805023;78;21105;-82
2022/03/03 06:51:42;;;;;;;;;;;;;;;0.99;71.50;100302.63;1816002;78;20233;-84
2022/03/03 06:54:14;;;;;;;;;;;;;;;1.19;70.67;100304.52;1809611;78;20157;-84
2022/03/03 06:56:45;;;;;;;;;;;;;;;1.16;70.92;100302.92;1821522;78;20309;-85
2022/03/03 06:59:11;;;;;;;;;;;;;;;1.30;70.44;100297.36;1817380;78;20651;-84
2022/03/03 07:01:36;;;;;;;;;;;;;;;1.25;70.53;100300.24;1815745;77;20779;-82
2022/03/03 07:04:02;;;;;;;;;;;;;;;1.42;70.25;100302.64;1774751;78;20141;-83
2022/03/03 07:06:28;;;;;;;;;;;;;;;1.47;70.27;100302.36;1812649;77;20173;-85
2022/03/03 07:08:54;;;;;;;;;;;;;;;1.63;69.82;100299.64;1806935;78;20153;-84
2022/03/03 07:11:20;;;;;;;;;;;;;;;1.64;69.80;100292.22;1817096;78;20474;-84
2022/03/03 07:13:45;;;;;;;;;;;;;;;1.86;69.26;100291.70;1810150;78;21001;-85
2022/03/03 07:16:44;;;;;;;;;;;;;;;1.82;69.29;100296.75;1812180;78;20220;-81
2022/03/03 07:19:41;;;;;;;;;;;;;;;1.62;70.09;100304.50;1791305;77;20216;-81
2022/03/03 07:22:28;;;;;;;;;;;;;;;1.86;69.10;100290.88;1815371;77;20139;-83
2022/03/03 07:25:06;;;;;;;;;;;;;;;1.98;68.66;100287.50;1807721;77;20598;-86
2022/03/03 07:27:32;;;;;;;;;;;;;;;1.93;68.00;100285.66;1816579;77;21102;-83
2022/03/03 07:29:59;;;;;;;;;;;;;;;2.08;68.46;100284.69;1796780;77;20926;-85
2022/03/03 07:32:33;;;;;;;;;;;;;;;2.23;68.00;100288.53;1804716;77;20483;-85
2022/03/03 07:35:02;;;;;;;;;;;;;;;2.47;67.38;100283.48;1803118;78;20197;-82
2022/03/03 07:37:36;;;;;;;;;;;;;;;2.67;66.66;100278.25;1805727;78;20173;-86
2022/03/03 07:40:06;;;;;;;;;;;;;;;2.84;65.78;100279.28;1803606;78;21087;-83
2022/03/03 07:42:32;;;;;;;;;;;;;;;2.90;65.51;100273.28;1804620;78;20204;-86
2022/03/03 07:44:58;;;;;;;;;;;;;;;2.88;65.37;100272.91;1799731;78;20479;-84
2022/03/03 07:47:23;;;;;;;;;;;;;;;3.09;64.79;100276.29;1809770;77;20188;-81
2022/03/03 07:49:51;;;;;;;;;;;;;;;3.24;63.85;100275.23;1825421;77;20439;-85
2022/03/03 07:52:16;;;;;;;;;;;;;;;3.34;63.39;100282.44;1811808;77;21187;-84
2022/03/03 07:54:42;;;;;;;;;;;;;;;3.55;63.14;100287.47;1807444;77;20191;-86
2022/03/03 07:57:10;;;;;;;;;;;;;;;3.78;62.72;100286.33;1810730;78;20140;-88
2022/03/03 07:59:36;;;;;;;;;;;;;;;3.86;61.65;100297.05;1814147;78;20746;-84
2022/03/03 08:02:04;;;;;;;;;;;;;;;3.92;61.62;100306.25;1793439;77;20163;-88
2022/03/03 08:04:31;;;;;;;;;;;;;;;4.00;61.37;100301.78;1806220;77;21272;-85
2022/03/03 08:07:01;;;;;;;;;;;;;;;4.23;61.41;100305.35;1820433;78;20278;-84
2022/03/03 08:09:26;;;;;;;;;;;;;;;4.35;60.55;100303.16;1798693;77;20200;-85
2022/03/03 08:11:53;;;;;;;;;;;;;;;4.38;60.00;100304.69;1808564;78;20157;-85
2022/03/03 08:14:18;;;;;;;;;;;;;;;4.48;59.45;100297.84;1811645;78;20166;-85
2022/03/03 08:16:45;;;;;;;;;;;;;;;4.58;59.50;100300.61;1812876;77;21002;-84
2022/03/03 08:19:11;;;;;;;;;;;;;;;4.71;58.97;100292.67;1805831;78;21060;-88
2022/03/03 08:21:37;;;;;;;;;;;;;;;4.84;58.55;100290.81;1790995;78;20131;-87
2022/03/03 08:24:03;;;;;;;;;;;;;;;4.87;58.28;100282.73;1801363;77;20129;-87
2022/03/03 08:26:29;;;;;;;;;;;;;;;5.04;58.52;100282.28;1813128;77;20230;-87
2022/03/03 08:28:55;;;;;;;;;;;;;;;5.25;58.12;100277.67;1787856;77;21074;-84
2022/03/03 08:31:27;;;;;;;;;;;;;;;5.26;57.02;100278.02;1814458;77;20108;-84
2022/03/03 08:33:54;;;;;;;;;;;;;;;5.38;57.32;100271.82;1810800;78;20133;-82
2022/03/03 08:36:29;;;;;;;;;;;;;;;5.33;56.58;100271.36;1801642;78;20176;-84
2022/03/03 08:38:57;;;;;;;;;;;;;;;5.36;56.89;100267.19;1807663;78;20499;-85
2022/03/03 08:41:22;;;;;;;;;;;;;;;5.27;56.55;100259.23;1815858;77;21115;-87
2022/03/03 08:43:50;;;;;;;;;;;;;;;5.27;56.66;100263.16;1803889;78;20291;-87
2022/03/03 08:46:17;;;;;;;;;;;;;;;5.33;55.88;100266.12;1778151;78;20876;-85
2022/03/03 08:48:42;;;;;;;;;;;;;;;5.26;56.33;100259.69;1794323;78;20259;-87
2022/03/03 08:51:08;;;;;;;;;;;;;;;5.42;56.65;100261.11;1815451;78;21231;-89
2022/03/03 08:53:34;;;;;;;;;;;;;;;5.32;56.76;100259.20;1795167;77;22057;-84
2022/03/03 08:56:00;;;;;;;;;;;;;;;5.25;56.66;100255.42;1809115;78;20179;-85
2022/03/03 08:58:26;;;;;;;;;;;;;;;5.52;56.37;100256.83;1818240;77;20197;-87
2022/03/03 09:00:52;;;;;;;;;;;;;;;5.62;56.32;100245.95;1806390;78;20104;-85
2022/03/03 09:03:21;;;;;;;;;;;;;;;5.53;56.38;100255.39;1816704;77;20288;-86
2022/03/03 09:05:45;;;;;;;;;;;;;;;5.17;57.00;100253.84;1814058;77;20129;-84
2022/03/03 09:08:11;;;;;;;;;;;;;;;5.34;56.87;100254.67;1802111;78;20459;-87
2022/03/03 09:10:36;;;;;;;;;;;;;;;5.27;56.72;100253.50;1816053;77;20139;-86
2022/03/03 09:13:02;;;;;;;;;;;;;;;5.49;56.53;100250.52;1810447;77;20900;-86
2022/03/03 09:15:30;;;;;;;;;;;;;;;5.57;56.09;100249.42;1811108;77;20167;-85
2022/03/03 09:17:57;;;;;;;;;;;;;;;5.67;56.63;100239.89;1813887;78;20114;-85
2022/03/03 09:20:23;;;;;;;;;;;;;;;5.57;55.96;100244.19;1803569;78;20168;-84
2022/03/03 09:22:48;;;;;;;;;;;;;;;5.61;56.11;100239.07;1815254;78;20161;-84
2022/03/03 09:25:14;;;;;;;;;;;;;;;5.87;55.68;100241.38;1810260;77;20131;-83
2022/03/03 09:27:40;;;;;;;;;;;;;;;5.72;55.47;100244.28;1805655;78;20163;-86
2022/03/03 09:30:06;;;;;;;;;;;;;;;5.80;55.03;100244.98;1808059;77;21060;-85
2022/03/03 09:32:32;;;;;;;;;;;;;;;5.91;54.59;100238.88;1785827;78;20413;-86
2022/03/03 09:34:57;;;;;;;;;;;;;;;5.89;54.33;100240.80;1753271;78;20148;-86
2022/03/03 09:37:23;;;;;;;;;;;;;;;5.89;53.83;100246.04;1765312;78;20129;-86
2022/03/03 09:39:50;;;;;;;;;;;;;;;6.05;53.68;100246.48;1807127;77;20301;-85
2022/03/03 09:42:16;;;;;;;;;;;;;;;5.90;53.15;100247.68;1807340;77;21936;-85
2022/03/03 09:44:42;;;;;;;;;;;;;;;6.11;52.14;100249.91;1803884;78;20129;-85
2022/03/03 09:47:08;;;;;;;;;;;;;;;6.12;51.65;100246.80;1818840;77;20131;-88
2022/03/03 09:49:34;;;;;;;;;;;;;;;6.26;51.50;100239.12;1784646;78;20631;-84
2022/03/03 09:52:01;;;;;;;;;;;;;;;6.40;51.79;100238.84;1804693;77;20165;-87
2022/03/03 09:54:26;;;;;;;;;;;;;;;6.35;51.52;100240.16;1801917;77;21143;-86
2022/03/03 09:56:52;;;;;;;;;;;;;;;6.30;51.27;100241.85;1814925;77;20132;-85
2022/03/03 09:59:18;;;;;;;;;;;;;;;6.26;51.31;100237.81;1813877;77;21037;-84
2022/03/03 10:01:45;;;;;;;;;;;;;;;6.28;51.02;100238.53;1801447;77;20141;-85
2022/03/03 10:04:18;;;;;;;;;;;;;;;6.17;51.57;100235.94;1800342;77;20119;-83
2022/03/03 10:06:43;;;;;;;;;;;;;;;6.30;51.37;100239.23;1798865;78;21205;-86
2022/03/03 10:09:09;;;;;;;;;;;;;;;6.38;50.72;100239.42;1802827;78;21465;-86
2022/03/03 10:12:01;;;;;;;;;;;;;;;6.52;50.44;100234.34;1799732;77;20215;-84
2022/03/03 10:14:32;;;;;;;;;;;;;;;6.73;50.64;100227.79;1805451;77;20214;-85
2022/03/03 10:16:58;;;;;;;;;;;;;;;6.87;50.19;100225.77;1801744;77;20143;-85
2022/03/03 10:19:24;;;;;;;;;;;;;;;6.97;49.93;100221.41;1798902;77;21026;-85
2022/03/03 10:21:49;;;;;;;;;;;;;;;6.99;49.48;100216.85;1801886;77;20235;-83
2022/03/03 10:24:21;;;;;;;;;;;;;;;6.92;49.26;100209.17;1776888;78;20124;-85
2022/03/03 10:26:47;;;;;;;;;;;;;;;6.71;49.16;100219.22;1809481;77;20825;-87
2022/03/03 10:29:18;;;;;;;;;;;;;;;6.64;49.53;100212.81;1811079;77;20267;-85
2022/03/03 10:31:51;;;;;;;;;;;;;;;6.76;48.74;100213.59;1802789;77;21167;-86
2022/03/03 10:34:19;;;;;;;;;;;;;;;6.99;48.59;100211.59;1809258;77;20593;-84
2022/03/03 10:36:56;;;;;;;;;;;;;;;7.22;48.95;100207.48;1810327;77;20130;-85
2022/03/03 10:39:22;;;;;;;;;;;;;;;7.30;48.43;100207.18;1807495;77;20578;-85
2022/03/03 10:41:48;;;;;;;;;;;;;;;7.06;47.70;100209.30;1801394;78;20193;-86
2022/03/03 10:44:17;;;;;;;;;;;;;;;6.99;47.99;100211.59;1812631;77;21150;-84
2022/03/03 10:47:06;;;;;;;;;;;;;;;6.97;47.50;100218.79;1810642;77;20208;-83
2022/03/03 10:49:32;;;;;;;;;;;;;;;6.97;46.94;100217.47;1802218;77;20168;-85
2022/03/03 10:52:15;;;;;;;;;;;;;;;6.99;46.55;100212.45;1809213;77;38134;-87
2022/03/03 10:54:58;;;;;;;;;;;;;;;7.04;46.43;100210.75;1807091;77;20216;-87
2022/03/03 10:57:41;;;;;;;;;;;;;;;7.16;46.16;100209.69;1810826;77;21094;-84
2022/03/03 11:00:13;;;;;;;;;;;;;;;7.31;46.13;100214.08;1808734;77;20135;-85
2022/03/03 11:02:45;;;;;;;;;;;;;;;7.57;45.87;100220.64;1813332;77;20421;-85
2022/03/03 11:05:11;;;;;;;;;;;;;;;7.71;43.61;100215.02;1794819;78;20173;-87
2022/03/03 11:07:40;;;;;;;;;;;;;;;7.85;42.76;100205.41;1804440;77;20138;-87
2022/03/03 11:10:06;;;;;;;;;;;;;;;7.93;43.06;100210.48;1803690;78;21080;-87
2022/03/03 11:12:31;;;;;;;;;;;;;;;7.98;42.29;100218.77;1810175;77;20570;-87
2022/03/03 11:14:57;;;;;;;;;;;;;;;7.93;42.49;100214.42;1813674;77;20174;-86
2022/03/03 11:17:23;;;;;;;;;;;;;;;8.02;42.47;100209.66;1812328;78;20251;-83
2022/03/03 11:19:51;;;;;;;;;;;;;;;8.15;42.37;100210.19;1815907;77;20169;-86
2022/03/03 11:22:17;;;;;;;;;;;;;;;8.22;42.16;100210.48;1804766;77;21076;-86
2022/03/03 11:24:43;;;;;;;;;;;;;;;8.23;41.80;100212.97;1796705;77;20195;-85
2022/03/03 11:27:08;;;;;;;;;;;;;;;8.09;41.93;100210.74;1769782;78;20124;-90
2022/03/03 11:29:38;;;;;;;;;;;;;;;8.02;42.15;100209.66;1766106;78;20181;-83
2022/03/03 11:32:04;;;;;;;;;;;;;;;8.16;42.00;100209.23;1766810;78;20215;-85
2022/03/03 11:34:40;;;;;;;;;;;;;;;8.20;41.79;100206.67;1779198;78;21324;-87
2022/03/03 11:37:23;;;;;;;;;;;;;;;8.24;41.69;100195.38;1770253;78;20144;-83
2022/03/03 11:40:00;;;;;;;;;;;;;;;8.43;42.09;100197.15;1804223;78;20183;-84
2022/03/03 11:42:28;;;;;;;;;;;;;;;8.40;41.51;100192.98;1809707;77;20163;-85
2022/03/03 11:45:01;;;;;;;;;;;;;;;8.20;41.75;100192.20;1795872;77;20564;-86
2022/03/03 11:47:29;;;;;;;;;;;;;;;8.35;42.01;100186.51;1802494;77;21270;-82
2022/03/03 11:50:01;;;;;;;;;;;;;;;8.40;41.88;100194.80;1798362;78;20245;-86
2022/03/03 11:52:27;;;;;;;;;;;;;;;8.27;42.31;100182.77;1799777;78;20469;-86
2022/03/03 11:54:57;;;;;;;;;;;;;;;8.46;42.20;100180.29;1806897;78;20099;-83
2022/03/03 11:57:27;;;;;;;;;;;;;;;8.45;42.31;100179.44;1803898;78;20106;-85
2022/03/03 11:59:51;;;;;;;;;;;;;;;8.53;42.73;100175.63;1813165;77;20115;-83
2022/03/03 12:02:18;;;;;;;;;;;;;;;8.61;43.09;100184.95;1807571;78;20117;-83
2022/03/03 12:04:44;;;;;;;;;;;;;;;8.51;43.90;100178.05;1803939;78;20124;-88
2022/03/03 12:07:29;;;;;;;;;;;;;;;8.55;44.10;100175.48;1811232;77;20234;-83
2022/03/03 12:09:56;;;;;;;;;;;;;;;8.56;43.95;100173.19;1803992;78;20251;-83
2022/03/03 12:12:23;;;;;;;;;;;;;;;8.37;44.17;100188.01;1805843;78;22413;-85
2022/03/03 12:15:00;;;;;;;;;;;;;;;8.38;44.15;100173.07;1807673;78;20207;-82
2022/03/03 12:17:45;;;;;;;;;;;;;;;8.13;45.10;100183.20;1793730;77;20138;-84
2022/03/03 12:20:29;;;;;;;;;;;;;;;8.36;44.75;100174.98;1784840;78;20102;-85
2022/03/03 12:23:05;;;;;;;;;;;;;;;8.43;45.25;100177.41;1817636;77;20126;-82
2022/03/03 12:25:51;;;;;;;;;;;;;;;8.58;45.43;100175.20;1784852;79;21188;-86
2022/03/03 12:28:19;;;;;;;;;;;;;;;8.15;46.19;100194.41;1791349;77;20143;-86
2022/03/03 12:30:45;;;;;;;;;;;;;;;8.27;46.54;100180.13;1812553;78;20155;-85
2022/03/03 12:33:19;;;;;;;;;;;;;;;8.67;46.01;100169.55;1801848;77;20287;-90
2022/03/03 12:35:45;;;;;;;;;;;;;;;8.67;46.11;100170.87;1803896;78;20205;-86
2022/03/03 12:38:11;;;;;;;;;;;;;;;8.74;46.75;100183.81;1808285;78;21086;-86
2022/03/03 12:40:36;;;;;;;;;;;;;;;8.76;47.06;100188.44;1810741;78;20167;-82
2022/03/03 12:43:02;;;;;;;;;;;;;;;9.10;46.66;100185.27;1813944;78;20239;-86
2022/03/03 12:45:30;;;;;;;;;;;;;;;8.90;46.62;100181.41;1808811;78;20098;-85
2022/03/03 12:47:55;;;;;;;;;;;;;;;8.94;46.31;100180.13;1809238;78;20471;-87
2022/03/03 12:50:26;;;;;;;;;;;;;;;8.85;46.45;100191.53;1811275;78;21141;-88
2022/03/03 12:53:08;;;;;;;;;;;;;;;8.72;46.88;100183.14;1800460;78;20256;-89